Time;durP1;ratioP1;P1;durP2;ratioP2;P2;SDS_P1;SDS_P2;PMS_P1;PMS_P2;Temp;Humidity;BMP_temperature;BMP_pressure;BME280_temperature;BME280_humidity;BME280_pressure;Samples;Min_cycle;Max_cycle;Signal;HPM_P1;HPM_P2
2022/01/29 00:02:10;;;;;;;14.38;9.05;;;6.00;99.90;;;;;;4975209;28;20563;-78
2022/01/29 00:04:36;;;;;;;15.88;9.80;;;6.00;99.90;;;;;;4975887;28;20268;-77
2022/01/29 00:07:02;;;;;;;16.20;10.90;;;6.00;99.90;;;;;;4975692;28;20260;-77
2022/01/29 00:09:27;;;;;;;19.70;11.20;;;6.10;99.90;;;;;;4975610;28;20692;-77
2022/01/29 00:11:53;;;;;;;21.97;10.60;;;6.10;99.90;;;;;;4975037;28;20443;-79
2022/01/29 00:14:18;;;;;;;19.23;10.53;;;6.20;99.90;;;;;;4973943;28;20803;-78
2022/01/29 00:16:44;;;;;;;19.00;10.50;;;6.30;99.90;;;;;;4975697;28;20169;-77
2022/01/29 00:19:10;;;;;;;19.83;10.20;;;6.30;99.90;;;;;;4975794;28;20637;-78
2022/01/29 00:21:35;;;;;;;21.80;12.60;;;6.30;99.90;;;;;;4975463;28;20283;-77
2022/01/29 00:24:01;;;;;;;21.70;11.07;;;6.30;99.90;;;;;;4975857;28;20184;-77
2022/01/29 00:26:27;;;;;;;21.83;11.50;;;6.30;99.90;;;;;;4974442;28;20201;-76
2022/01/29 00:28:55;;;;;;;20.15;12.23;;;6.30;99.90;;;;;;4974074;28;20186;-78
2022/01/29 00:31:20;;;;;;;23.08;11.13;;;6.30;99.90;;;;;;4974730;28;20177;-77
2022/01/29 00:33:46;;;;;;;30.80;11.20;;;6.20;99.90;;;;;;4975413;28;20212;-78
2022/01/29 00:36:12;;;;;;;19.57;10.67;;;6.30;99.90;;;;;;4974221;28;20685;-77
2022/01/29 00:38:37;;;;;;;16.33;10.57;;;6.30;99.90;;;;;;4974177;28;20184;-78
2022/01/29 00:41:03;;;;;;;27.77;12.87;;;6.30;99.90;;;;;;4974761;28;20216;-77
2022/01/29 00:43:29;;;;;;;19.03;11.40;;;6.40;99.90;;;;;;4957698;28;20569;-78
2022/01/29 00:45:54;;;;;;;21.08;12.43;;;6.40;99.90;;;;;;4975070;28;20185;-80
2022/01/29 00:48:20;;;;;;;21.73;11.40;;;6.30;99.90;;;;;;4975083;28;20260;-79
2022/01/29 00:50:46;;;;;;;29.67;12.33;;;6.30;99.90;;;;;;4973454;28;20676;-78
2022/01/29 00:53:11;;;;;;;20.83;11.13;;;6.40;99.90;;;;;;4974802;28;20580;-80
2022/01/29 00:55:37;;;;;;;15.77;8.67;;;6.30;99.90;;;;;;4973618;28;20781;-80
2022/01/29 00:58:03;;;;;;;27.67;11.83;;;6.40;99.90;;;;;;4974855;28;20683;-79
2022/01/29 01:00:28;;;;;;;27.13;13.03;;;6.50;99.90;;;;;;4974925;28;20640;-80
2022/01/29 01:02:54;;;;;;;18.93;10.37;;;6.50;99.90;;;;;;4973233;28;20701;-78
2022/01/29 01:05:20;;;;;;;22.93;11.20;;;6.40;99.90;;;;;;4974712;28;20185;-78
2022/01/29 01:07:45;;;;;;;23.03;12.27;;;6.50;99.90;;;;;;4974716;28;20214;-80
2022/01/29 01:10:12;;;;;;;22.77;11.40;;;6.40;99.90;;;;;;4974951;28;20189;-78
2022/01/29 01:12:37;;;;;;;16.20;10.00;;;6.50;99.90;;;;;;4974559;28;20204;-79
2022/01/29 01:15:04;;;;;;;22.13;10.43;;;6.50;99.90;;;;;;4974925;28;20268;-79
2022/01/29 01:17:30;;;;;;;26.77;12.85;;;6.50;99.90;;;;;;4974708;28;20188;-80
2022/01/29 01:19:55;;;;;;;20.07;12.00;;;6.50;99.90;;;;;;4974585;28;20177;-80
2022/01/29 01:22:21;;;;;;;24.80;12.50;;;6.50;99.90;;;;;;4974330;28;20220;-79
2022/01/29 01:24:47;;;;;;;23.90;12.10;;;6.50;99.90;;;;;;4974413;28;20185;-79
2022/01/29 01:27:14;;;;;;;22.60;12.47;;;6.50;99.90;;;;;;4974789;28;20935;-79
2022/01/29 01:29:39;;;;;;;24.00;13.00;;;6.50;99.90;;;;;;4974657;28;20256;-78
2022/01/29 01:32:10;;;;;;;27.17;12.90;;;6.50;99.90;;;;;;4972983;28;20279;-79
2022/01/29 01:34:39;;;;;;;24.40;12.75;;;6.50;99.90;;;;;;4974328;28;20460;-80
2022/01/29 01:37:09;;;;;;;21.10;12.75;;;6.40;99.90;;;;;;4973324;28;20283;-80
2022/01/29 01:39:37;;;;;;;22.98;12.60;;;6.40;99.90;;;;;;4973601;28;20173;-79
2022/01/29 01:42:07;;;;;;;22.38;13.48;;;6.40;99.90;;;;;;4974606;28;20557;-79
2022/01/29 01:44:43;;;;;;;24.90;13.13;;;6.40;99.90;;;;;;4974841;28;20190;-79
2022/01/29 01:47:09;;;;;;;21.05;12.88;;;6.40;99.90;;;;;;4974395;28;20190;-78
2022/01/29 01:49:36;;;;;;;21.88;13.85;;;6.50;99.90;;;;;;4974271;28;20195;-78
2022/01/29 01:52:03;;;;;;;21.17;9.93;;;6.40;99.90;;;;;;4972784;28;20247;-77
2022/01/29 01:54:29;;;;;;;21.83;10.85;;;6.40;99.90;;;;;;4974194;28;20218;-78
2022/01/29 01:56:54;;;;;;;23.03;12.50;;;6.40;99.90;;;;;;4974286;28;20630;-77
2022/01/29 01:59:20;;;;;;;25.83;13.50;;;6.40;99.90;;;;;;4974203;28;20416;-78
2022/01/29 02:01:45;;;;;;;26.63;13.07;;;6.50;99.90;;;;;;4973259;28;20223;-79
2022/01/29 02:04:11;;;;;;;21.77;13.60;;;6.50;99.90;;;;;;4974141;28;20189;-77
2022/01/29 02:06:37;;;;;;;23.90;12.90;;;6.50;99.90;;;;;;4974061;28;20778;-79
2022/01/29 02:09:03;;;;;;;20.67;12.67;;;6.50;99.90;;;;;;4974111;28;20418;-78
2022/01/29 02:11:29;;;;;;;24.70;13.20;;;6.60;99.90;;;;;;4973623;28;20441;-77
2022/01/29 02:13:57;;;;;;;26.38;14.20;;;6.40;99.90;;;;;;4973814;28;20202;-79
2022/01/29 02:16:23;;;;;;;26.23;13.05;;;6.50;99.90;;;;;;4974222;28;20221;-77
2022/01/29 02:18:48;;;;;;;22.85;13.25;;;6.50;99.90;;;;;;4974029;28;20179;-80
2022/01/29 02:21:16;;;;;;;23.23;13.63;;;6.50;99.90;;;;;;4973644;28;20521;-77
2022/01/29 02:23:41;;;;;;;22.27;12.77;;;6.50;99.90;;;;;;4974134;28;20199;-79
2022/01/29 02:26:07;;;;;;;23.87;13.50;;;6.60;99.90;;;;;;4974027;28;20642;-80
2022/01/29 02:28:33;;;;;;;19.60;12.10;;;6.60;99.90;;;;;;4974033;28;20240;-77
2022/01/29 02:31:02;;;;;;;25.90;14.03;;;6.60;99.90;;;;;;4972385;28;20350;-77
2022/01/29 02:33:31;;;;;;;24.50;13.43;;;6.50;99.90;;;;;;4973688;28;20260;-77
2022/01/29 02:35:57;;;;;;;21.08;12.82;;;6.60;99.90;;;;;;4974900;28;20174;-79
2022/01/29 02:38:24;;;;;;;22.25;12.52;;;6.60;99.90;;;;;;4977172;28;20176;-77
2022/01/29 02:40:58;;;;;;;26.73;13.85;;;6.60;99.90;;;;;;4975886;28;20188;-79
2022/01/29 02:43:47;;;;;;;28.45;14.93;;;6.60;99.90;;;;;;4977366;28;20692;-77
2022/01/29 02:48:45;;;;;;;28.40;13.07;;;6.50;99.90;;;;;;4977380;28;20229;-78
2022/01/29 02:51:10;;;;;;;25.00;13.30;;;6.50;99.90;;;;;;4976756;28;20204;-79
2022/01/29 02:53:36;;;;;;;24.67;13.07;;;6.60;99.90;;;;;;4977029;28;20210;-77
2022/01/29 02:56:02;;;;;;;27.47;14.30;;;6.60;99.90;;;;;;4977213;28;20179;-77
2022/01/29 02:58:27;;;;;;;23.10;13.80;;;6.70;99.90;;;;;;4976845;28;20188;-81
2022/01/29 03:00:53;;;;;;;25.50;13.87;;;6.70;99.90;;;;;;4975374;28;20419;-78
2022/01/29 03:03:19;;;;;;;24.03;13.80;;;6.70;99.90;;;;;;4976803;28;20228;-80
2022/01/29 03:05:44;;;;;;;28.90;14.00;;;6.70;99.90;;;;;;4976862;28;20184;-78
2022/01/29 03:08:10;;;;;;;32.20;15.43;;;6.70;99.90;;;;;;4975541;28;20190;-79
2022/01/29 03:10:36;;;;;;;27.00;14.50;;;6.70;99.90;;;;;;4976445;28;20192;-79
2022/01/29 03:13:02;;;;;;;23.70;14.23;;;6.70;99.90;;;;;;4975232;28;20216;-78
2022/01/29 03:15:28;;;;;;;27.52;12.93;;;6.60;99.90;;;;;;4975562;28;20189;-77
2022/01/29 03:17:54;;;;;;;28.10;16.63;;;6.70;99.90;;;;;;4976635;28;20173;-78
2022/01/29 03:20:19;;;;;;;26.43;13.70;;;6.60;99.90;;;;;;4976643;28;20236;-79
2022/01/29 03:22:45;;;;;;;27.57;14.80;;;6.50;99.90;;;;;;4974778;28;20251;-78
2022/01/29 03:25:11;;;;;;;25.03;13.70;;;6.60;99.90;;;;;;4975337;28;20215;-79
2022/01/29 03:27:36;;;;;;;31.57;15.50;;;6.60;99.90;;;;;;4975398;28;20644;-80
2022/01/29 03:30:04;;;;;;;23.03;13.90;;;6.50;99.90;;;;;;4976658;28;20185;-77
2022/01/29 03:32:30;;;;;;;22.73;13.35;;;6.40;99.90;;;;;;4976158;28;20576;-79
2022/01/29 03:34:56;;;;;;;24.23;13.60;;;6.50;99.90;;;;;;4976775;28;20177;-78
2022/01/29 03:37:21;;;;;;;21.50;11.73;;;6.50;99.90;;;;;;4976908;28;20173;-79
2022/01/29 03:39:47;;;;;;;27.73;12.73;;;6.40;99.90;;;;;;4978256;28;20205;-77
2022/01/29 03:42:14;;;;;;;24.03;11.20;;;6.40;99.90;;;;;;4979219;28;20435;-78
2022/01/29 03:44:40;;;;;;;24.80;13.60;;;6.30;99.90;;;;;;4976160;28;20212;-78
2022/01/29 03:47:06;;;;;;;24.67;12.47;;;6.30;99.90;;;;;;4975166;28;20294;-78
2022/01/29 03:49:32;;;;;;;25.63;13.07;;;6.30;99.90;;;;;;4975950;28;20507;-78
2022/01/29 03:51:57;;;;;;;19.77;11.27;;;6.40;99.90;;;;;;4975520;28;20211;-77
2022/01/29 03:54:23;;;;;;;24.73;13.73;;;6.30;99.90;;;;;;4975823;28;20472;-77
2022/01/29 03:56:48;;;;;;;12.30;7.70;;;6.30;99.90;;;;;;4974644;28;20188;-78
2022/01/29 03:59:14;;;;;;;21.60;12.33;;;6.30;99.90;;;;;;4975712;28;20547;-78
2022/01/29 04:01:39;;;;;;;21.03;11.23;;;6.30;99.90;;;;;;4975276;28;20216;-78
2022/01/29 04:04:05;;;;;;;20.20;11.90;;;6.40;99.90;;;;;;4975758;28;20189;-78
2022/01/29 04:06:31;;;;;;;15.10;10.00;;;6.30;99.90;;;;;;4975634;28;20177;-77
2022/01/29 04:08:57;;;;;;;19.97;11.77;;;6.30;99.90;;;;;;4974302;28;20232;-79
2022/01/29 04:11:24;;;;;;;19.52;10.80;;;6.30;99.90;;;;;;4975139;28;20416;-78
2022/01/29 04:13:50;;;;;;;21.08;12.30;;;6.30;99.90;;;;;;4974113;28;20571;-78
2022/01/29 04:16:17;;;;;;;20.80;11.83;;;6.30;99.90;;;;;;4975377;28;20255;-78
2022/01/29 04:18:43;;;;;;;19.77;11.10;;;6.30;99.90;;;;;;4975485;28;20779;-77
2022/01/29 04:21:10;;;;;;;19.00;9.48;;;6.30;99.90;;;;;;4975206;28;20178;-78
2022/01/29 04:23:35;;;;;;;17.67;9.75;;;6.40;99.90;;;;;;4975506;28;20173;-79
2022/01/29 04:26:03;;;;;;;18.87;10.10;;;6.40;99.90;;;;;;4975421;28;20187;-78
2022/01/29 04:28:34;;;;;;;16.67;10.68;;;6.40;99.90;;;;;;4975329;28;20962;-77
2022/01/29 04:31:09;;;;;;;14.75;9.02;;;6.40;99.90;;;;;;4974879;28;20187;-79
2022/01/29 04:33:34;;;;;;;15.75;10.05;;;6.40;99.90;;;;;;4975293;28;20208;-78
2022/01/29 04:36:02;;;;;;;14.83;8.23;;;6.40;99.90;;;;;;4975232;28;20188;-77
2022/01/29 04:38:29;;;;;;;13.25;7.90;;;6.30;99.90;;;;;;4975335;28;20233;-77
2022/01/29 04:40:56;;;;;;;16.67;10.40;;;6.20;99.90;;;;;;4974864;28;20180;-77
2022/01/29 04:43:22;;;;;;;17.70;10.90;;;6.20;99.90;;;;;;4974759;28;20205;-78
2022/01/29 04:45:48;;;;;;;17.13;9.53;;;6.30;99.90;;;;;;4975168;28;20194;-79
2022/01/29 04:48:14;;;;;;;16.30;10.90;;;6.30;99.90;;;;;;4975129;28;20852;-77
2022/01/29 04:50:39;;;;;;;14.30;9.03;;;6.20;99.90;;;;;;4975109;28;20177;-80
2022/01/29 04:53:06;;;;;;;18.60;9.83;;;6.20;99.90;;;;;;4974620;28;20468;-78
2022/01/29 04:55:33;;;;;;;12.20;7.72;;;6.20;99.90;;;;;;4974863;28;20419;-79
2022/01/29 04:57:58;;;;;;;17.67;8.60;;;6.30;99.90;;;;;;4974760;28;20179;-78
2022/01/29 05:00:25;;;;;;;14.90;8.10;;;6.20;99.90;;;;;;4974722;28;20181;-80
2022/01/29 05:02:55;;;;;;;13.80;8.95;;;6.20;99.90;;;;;;4974290;28;20220;-79
2022/01/29 05:05:22;;;;;;;14.90;8.88;;;6.30;99.90;;;;;;4974508;28;20545;-78
2022/01/29 05:07:48;;;;;;;12.45;8.20;;;6.30;99.90;;;;;;4974545;28;20183;-79
2022/01/29 05:10:14;;;;;;;13.07;7.10;;;6.30;99.90;;;;;;4974519;28;20186;-77
2022/01/29 05:12:53;;;;;;;10.55;6.65;;;6.30;99.90;;;;;;4974186;28;20855;-79
2022/01/29 05:26:53;;;;;;;10.90;5.90;;;6.30;99.90;;;;;;4974579;28;20593;-78
2022/01/29 05:29:19;;;;;;;9.18;6.00;;;6.30;99.90;;;;;;4959932;28;20192;-77
2022/01/29 05:31:44;;;;;;;9.90;5.33;;;6.30;99.90;;;;;;4973877;28;20219;-76
2022/01/29 05:34:11;;;;;;;8.70;5.93;;;6.30;99.90;;;;;;4974323;28;20204;-78
2022/01/29 05:36:37;;;;;;;7.70;5.32;;;6.30;99.90;;;;;;4974347;28;20173;-76
2022/01/29 05:39:04;;;;;;;6.80;4.70;;;6.20;99.90;;;;;;4974463;28;20525;-78
2022/01/29 05:41:30;;;;;;;6.97;4.80;;;6.20;99.90;;;;;;4973770;28;20200;-79
2022/01/29 05:43:56;;;;;;;9.73;5.55;;;6.20;99.90;;;;;;4974386;28;20203;-78
2022/01/29 05:46:22;;;;;;;6.63;4.60;;;6.20;99.90;;;;;;4974255;28;20181;-79
2022/01/29 05:48:47;;;;;;;9.40;6.90;;;6.30;99.90;;;;;;4974320;28;20201;-78
2022/01/29 05:51:13;;;;;;;9.40;5.63;;;6.20;99.90;;;;;;4973948;28;20420;-77
2022/01/29 05:53:39;;;;;;;9.10;4.55;;;6.30;99.90;;;;;;4974012;28;20585;-78
2022/01/29 05:56:06;;;;;;;6.20;4.00;;;6.30;99.90;;;;;;4974164;28;20189;-78
2022/01/29 05:58:31;;;;;;;6.20;5.00;;;6.30;99.90;;;;;;4974139;28;20187;-77
2022/01/29 06:00:57;;;;;;;6.70;4.80;;;6.30;99.90;;;;;;4974016;28;20664;-78
2022/01/29 06:03:23;;;;;;;5.70;4.70;;;6.30;99.90;;;;;;4972822;28;20295;-77
2022/01/29 06:05:48;;;;;;;7.13;4.80;;;6.30;99.90;;;;;;4973899;28;20188;-79
2022/01/29 06:08:14;;;;;;;5.77;4.60;;;6.30;99.90;;;;;;4973989;28;20620;-78
2022/01/29 06:10:39;;;;;;;5.67;4.00;;;6.30;99.90;;;;;;4974601;28;20185;-77
2022/01/29 06:13:12;;;;;;;6.03;4.30;;;6.40;99.90;;;;;;4977337;28;20209;-77
2022/01/29 06:15:42;;;;;;;6.30;4.50;;;6.40;99.90;;;;;;4977621;28;20183;-78
2022/01/29 06:18:15;;;;;;;6.40;4.55;;;6.40;99.90;;;;;;4977498;28;20188;-77
2022/01/29 06:20:42;;;;;;;6.43;4.03;;;6.40;99.90;;;;;;4977476;28;20185;-77
2022/01/29 06:23:10;;;;;;;4.93;4.10;;;6.30;99.90;;;;;;4977431;28;20217;-78
2022/01/29 06:25:36;;;;;;;6.13;4.65;;;6.30;99.90;;;;;;4977621;28;20181;-77
2022/01/29 06:28:01;;;;;;;5.63;4.55;;;6.40;99.90;;;;;;4977456;28;20212;-78
2022/01/29 06:30:27;;;;;;;6.37;4.77;;;6.40;99.90;;;;;;4976291;28;20199;-78
2022/01/29 06:32:53;;;;;;;8.50;4.30;;;6.30;99.90;;;;;;4975839;28;20213;-78
2022/01/29 06:35:18;;;;;;;5.70;5.03;;;6.40;99.90;;;;;;4977547;28;20264;-77
2022/01/29 06:37:45;;;;;;;6.40;4.80;;;6.50;99.90;;;;;;4977498;28;20252;-78
2022/01/29 06:40:11;;;;;;;6.18;5.57;;;6.50;99.90;;;;;;4977347;28;20428;-81
2022/01/29 06:42:37;;;;;;;5.90;4.60;;;6.60;99.90;;;;;;4976758;28;20717;-78
2022/01/29 06:45:04;;;;;;;7.00;5.70;;;6.70;99.90;;;;;;4977261;28;20208;-77
2022/01/29 06:47:30;;;;;;;9.75;6.18;;;6.70;99.90;;;;;;4975824;28;20425;-78
2022/01/29 06:49:55;;;;;;;8.90;4.87;;;6.70;99.90;;;;;;4977226;28;20657;-78
2022/01/29 06:52:21;;;;;;;9.10;5.60;;;6.70;99.90;;;;;;4976688;28;20612;-77
2022/01/29 06:54:46;;;;;;;8.73;5.80;;;6.70;99.90;;;;;;4977154;28;20288;-77
2022/01/29 06:57:12;;;;;;;7.60;5.83;;;6.80;99.90;;;;;;4975668;28;20177;-78
2022/01/29 06:59:38;;;;;;;7.87;5.87;;;6.80;99.90;;;;;;4976895;28;20176;-78
2022/01/29 07:02:03;;;;;;;5.00;4.43;;;6.80;99.90;;;;;;4976388;28;20221;-79
2022/01/29 07:04:29;;;;;;;5.23;4.67;;;6.90;99.90;;;;;;4976828;28;20187;-77
2022/01/29 07:06:55;;;;;;;7.00;5.43;;;6.80;99.90;;;;;;4975537;28;20195;-78
2022/01/29 07:09:20;;;;;;;6.10;5.30;;;6.90;99.90;;;;;;4976783;28;20654;-77
2022/01/29 07:11:47;;;;;;;6.63;5.30;;;6.90;99.90;;;;;;4976308;28;20225;-77
2022/01/29 07:14:17;;;;;;;6.20;5.32;;;6.80;99.90;;;;;;4976643;28;20196;-77
2022/01/29 07:16:43;;;;;;;5.97;4.88;;;6.90;99.90;;;;;;4976613;28;20180;-78
2022/01/29 07:19:09;;;;;;;5.25;4.72;;;6.90;99.90;;;;;;4975300;28;20188;-78
2022/01/29 07:21:35;;;;;;;5.40;4.38;;;6.90;99.90;;;;;;4975731;28;20200;-78
2022/01/29 07:24:01;;;;;;;6.40;4.47;;;7.00;99.90;;;;;;4976470;28;20582;-79
2022/01/29 07:26:27;;;;;;;5.03;4.53;;;7.10;99.90;;;;;;4976417;28;20194;-79
2022/01/29 07:28:52;;;;;;;5.20;4.70;;;7.10;99.90;;;;;;4976395;28;20177;-78
2022/01/29 07:31:18;;;;;;;5.27;4.13;;;7.10;99.90;;;;;;4976000;28;20637;-78
2022/01/29 07:33:43;;;;;;;5.70;4.63;;;7.20;99.90;;;;;;4976372;28;20235;-79
2022/01/29 07:36:09;;;;;;;6.97;4.87;;;7.10;99.90;;;;;;4974894;28;20650;-80
2022/01/29 07:38:35;;;;;;;6.33;4.63;;;7.10;99.90;;;;;;4976094;28;20186;-78
2022/01/29 07:41:00;;;;;;;5.97;5.20;;;7.10;99.90;;;;;;4975040;28;20216;-79
2022/01/29 07:43:26;;;;;;;7.10;4.27;;;7.10;99.90;;;;;;4974839;28;20538;-78
2022/01/29 07:45:51;;;;;;;4.63;4.23;;;7.10;99.90;;;;;;4976061;28;20189;-78
2022/01/29 07:48:17;;;;;;;5.40;4.50;;;7.20;99.90;;;;;;4976239;28;20194;-78
2022/01/29 07:50:42;;;;;;;5.50;4.93;;;7.20;99.90;;;;;;4975663;28;20531;-80
2022/01/29 07:53:08;;;;;;;5.23;4.73;;;7.20;99.90;;;;;;4975900;28;20689;-79
2022/01/29 07:55:34;;;;;;;5.87;5.17;;;7.20;99.90;;;;;;4976099;28;20187;-79
2022/01/29 07:58:01;;;;;;;6.40;4.67;;;7.20;99.90;;;;;;4976051;28;20240;-77
2022/01/29 08:00:28;;;;;;;6.18;5.22;;;7.30;99.90;;;;;;4975844;28;20190;-77
2022/01/29 08:02:53;;;;;;;7.00;4.72;;;7.30;99.90;;;;;;4975036;28;20762;-78
2022/01/29 08:05:19;;;;;;;7.90;6.00;;;7.30;99.90;;;;;;4975830;28;20324;-78
2022/01/29 08:07:44;;;;;;;5.63;4.90;;;7.40;99.90;;;;;;4975799;28;20263;-77
2022/01/29 08:10:10;;;;;;;5.73;4.70;;;7.40;99.90;;;;;;4975785;28;20189;-78
2022/01/29 08:12:36;;;;;;;8.43;5.10;;;7.40;99.90;;;;;;4973908;28;20290;-78
2022/01/29 08:15:03;;;;;;;5.57;5.07;;;7.50;99.90;;;;;;4975414;28;20514;-77
2022/01/29 08:17:29;;;;;;;7.05;4.95;;;7.50;99.90;;;;;;4974291;28;20184;-79
2022/01/29 08:19:55;;;;;;;8.33;5.10;;;7.40;99.90;;;;;;4974440;28;20263;-77
2022/01/29 08:22:20;;;;;;;5.27;4.60;;;7.50;99.90;;;;;;4975000;28;20209;-78
2022/01/29 08:24:46;;;;;;;8.13;5.20;;;7.50;99.90;;;;;;4975406;28;20413;-78
2022/01/29 08:27:12;;;;;;;8.03;4.60;;;7.50;99.90;;;;;;4975223;28;20528;-77
2022/01/29 08:29:37;;;;;;;5.47;4.97;;;7.50;99.90;;;;;;4974112;28;20254;-77
2022/01/29 08:32:04;;;;;;;6.03;4.80;;;7.50;99.90;;;;;;4975134;28;20193;-79
2022/01/29 08:34:30;;;;;;;6.43;5.20;;;7.60;99.90;;;;;;4974842;28;20204;-79
2022/01/29 08:37:00;;;;;;;5.03;4.53;;;7.70;99.90;;;;;;4975168;28;20249;-78
2022/01/29 08:39:26;;;;;;;5.93;5.20;;;7.60;99.90;;;;;;4975446;28;20263;-79
2022/01/29 08:41:51;;;;;;;5.83;5.23;;;7.60;99.90;;;;;;4975675;28;20277;-78
2022/01/29 08:44:17;;;;;;;10.33;4.83;;;7.70;99.90;;;;;;4980158;28;20213;-79
2022/01/29 08:46:42;;;;;;;6.20;4.77;;;7.80;99.90;;;;;;4974792;28;20192;-79
2022/01/29 08:49:08;;;;;;;7.30;4.60;;;7.70;99.90;;;;;;4974978;28;20188;-79
2022/01/29 08:51:34;;;;;;;5.20;4.70;;;7.70;99.90;;;;;;4973380;28;20204;-79
2022/01/29 08:54:00;;;;;;;9.20;4.45;;;7.80;99.90;;;;;;4974556;28;20204;-77
2022/01/29 08:56:26;;;;;;;6.10;5.13;;;7.80;99.90;;;;;;4973653;28;20177;-81
2022/01/29 08:58:51;;;;;;;7.23;4.40;;;7.90;99.90;;;;;;4973659;28;20435;-77
2022/01/29 09:01:17;;;;;;;4.63;4.20;;;7.80;99.90;;;;;;4974303;28;20182;-79
2022/01/29 09:03:43;;;;;;;6.28;4.80;;;7.90;99.90;;;;;;4974952;28;20243;-80
2022/01/29 09:06:09;;;;;;;5.90;3.97;;;8.00;99.90;;;;;;4974728;28;20175;-79
2022/01/29 09:08:36;;;;;;;7.50;5.30;;;7.90;99.90;;;;;;4974731;28;20507;-79
2022/01/29 09:11:01;;;;;;;4.40;4.00;;;7.90;99.90;;;;;;4974540;28;20653;-80
2022/01/29 09:13:28;;;;;;;6.63;4.67;;;8.00;99.90;;;;;;4974369;28;20300;-77
2022/01/29 09:15:54;;;;;;;4.20;3.80;;;8.00;99.90;;;;;;4974592;28;20507;-77
2022/01/29 09:18:20;;;;;;;3.63;3.20;;;8.00;99.90;;;;;;4974506;28;20182;-79
2022/01/29 09:20:45;;;;;;;5.70;3.73;;;8.10;99.90;;;;;;4974314;28;20253;-80
2022/01/29 09:23:11;;;;;;;5.30;3.83;;;8.20;99.90;;;;;;4974428;28;20205;-78
2022/01/29 09:25:37;;;;;;;3.80;3.47;;;8.30;99.90;;;;;;4973169;28;20184;-78
2022/01/29 09:28:07;;;;;;;6.07;4.65;;;8.30;99.90;;;;;;4974576;28;20182;-77
2022/01/29 09:30:34;;;;;;;4.43;3.80;;;8.40;99.90;;;;;;4974374;28;20181;-78
2022/01/29 09:32:59;;;;;;;3.45;3.00;;;8.50;99.90;;;;;;4974246;28;20268;-78
2022/01/29 09:35:26;;;;;;;6.83;3.77;;;8.50;99.90;;;;;;4974504;28;20259;-79
2022/01/29 09:37:52;;;;;;;5.97;3.67;;;8.60;99.90;;;;;;4974372;28;20188;-79
2022/01/29 09:40:18;;;;;;;5.40;3.30;;;8.60;99.90;;;;;;4974657;28;20173;-79
2022/01/29 09:42:45;;;;;;;4.10;3.70;;;8.70;99.90;;;;;;4972856;28;20479;-79
2022/01/29 09:45:16;;;;;;;3.25;2.95;;;8.80;99.90;;;;;;4974824;28;20187;-79
2022/01/29 09:47:43;;;;;;;6.68;3.53;;;8.80;99.90;;;;;;4978280;28;20203;-81
2022/01/29 09:50:10;;;;;;;3.20;2.65;;;8.90;99.90;;;;;;4978319;28;20188;-80
2022/01/29 09:52:36;;;;;;;4.10;2.85;;;9.00;99.90;;;;;;4977751;28;20199;-77
2022/01/29 09:55:04;;;;;;;3.20;2.83;;;9.00;99.90;;;;;;4978163;28;20213;-77
2022/01/29 09:57:29;;;;;;;2.67;2.40;;;8.90;99.90;;;;;;4978081;28;20173;-79
2022/01/29 09:59:55;;;;;;;3.43;3.13;;;9.00;99.90;;;;;;4978107;28;20509;-79
2022/01/29 10:02:21;;;;;;;3.63;3.23;;;9.00;99.90;;;;;;4976345;28;20223;-78
2022/01/29 10:04:56;;;;;;;3.40;3.03;;;9.10;99.90;;;;;;4978402;28;20246;-78
2022/01/29 10:07:28;;;;;;;3.10;2.80;;;9.10;99.90;;;;;;4977889;28;20300;-80
2022/01/29 10:09:55;;;;;;;4.13;2.33;;;9.10;99.90;;;;;;4977827;28;20173;-78
2022/01/29 10:12:26;;;;;;;2.45;2.25;;;9.10;99.90;;;;;;4976291;28;20212;-78
2022/01/29 10:14:56;;;;;;;2.75;2.55;;;9.10;99.90;;;;;;4977869;28;20665;-80
2022/01/29 10:17:55;;;;;;;5.47;2.72;;;9.10;99.90;;;;;;4977479;28;20638;-80
2022/01/29 10:20:29;;;;;;;3.88;2.35;;;9.20;99.90;;;;;;4965476;28;20181;-78
2022/01/29 10:23:00;;;;;;;4.07;2.53;;;9.20;99.90;;;;;;4975882;28;20696;-78
2022/01/29 10:25:36;;;;;;;2.33;1.85;;;9.20;99.90;;;;;;4977620;28;20178;-79
2022/01/29 10:28:16;;;;;;;2.55;2.35;;;9.20;99.90;;;;;;4977382;28;20264;-78
2022/01/29 10:30:51;;;;;;;2.28;2.08;;;9.20;99.90;;;;;;4977323;28;20680;-79
2022/01/29 10:33:22;;;;;;;3.55;2.20;;;9.10;99.90;;;;;;4977227;28;20620;-79
2022/01/29 10:36:00;;;;;;;7.32;2.38;;;9.30;99.90;;;;;;4977226;28;20176;-80
2022/01/29 10:38:27;;;;;;;3.75;2.50;;;9.30;99.90;;;;;;4977505;28;20169;-80
2022/01/29 10:41:24;;;;;;;2.10;1.90;;;9.30;99.90;;;;;;4977347;28;20176;-78
2022/01/29 10:46:38;;;;;;;2.33;1.90;;;9.40;99.90;;;;;;4977443;28;20198;-78
2022/01/29 10:49:04;;;;;;;2.03;1.40;;;9.60;99.90;;;;;;4977162;28;20184;-77
2022/01/29 10:51:31;;;;;;;2.10;1.80;;;9.80;99.90;;;;;;4976864;28;20197;-80
2022/01/29 10:54:19;;;;;;;1.48;1.38;;;9.80;99.90;;;;;;4976941;28;20702;-80
2022/01/29 10:56:58;;;;;;;1.70;1.60;;;9.80;99.90;;;;;;4976500;28;20275;-77
2022/01/29 10:59:26;;;;;;;1.10;0.90;;;9.80;99.90;;;;;;4976682;28;20176;-78
2022/01/29 11:01:57;;;;;;;1.80;1.23;;;9.70;99.90;;;;;;4976516;28;20264;-78
2022/01/29 11:04:25;;;;;;;3.65;1.63;;;9.70;99.90;;;;;;4976747;28;20180;-79
2022/01/29 11:06:52;;;;;;;2.22;1.33;;;9.80;99.90;;;;;;4976884;28;20268;-80
2022/01/29 11:09:17;;;;;;;3.17;1.73;;;9.70;99.90;;;;;;4976633;28;20261;-81
2022/01/29 11:11:45;;;;;;;6.37;2.20;;;9.70;99.90;;;;;;4976422;28;20226;-80
2022/01/29 11:14:17;;;;;;;3.67;1.10;;;9.60;99.90;;;;;;4976390;28;20456;-78
2022/01/29 11:16:44;;;;;;;1.40;1.10;;;9.50;99.90;;;;;;4975200;28;20198;-80
2022/01/29 11:19:11;;;;;;;2.13;1.00;;;9.50;99.90;;;;;;4976408;28;20169;-79
2022/01/29 11:21:37;;;;;;;1.10;1.00;;;9.40;99.90;;;;;;4974931;28;20237;-80
2022/01/29 11:24:06;;;;;;;2.25;1.17;;;9.40;99.90;;;;;;4976526;28;20182;-78
2022/01/29 11:26:33;;;;;;;5.82;1.45;;;9.50;99.90;;;;;;4975025;28;20176;-79
2022/01/29 11:29:31;;;;;;;2.05;1.20;;;9.40;99.90;;;;;;4959277;28;20696;-79
2022/01/29 11:32:21;;;;;;;1.20;1.10;;;9.40;99.90;;;;;;4972142;28;20712;-79
2022/01/29 11:35:14;;;;;;;2.17;1.20;;;9.30;99.90;;;;;;4975046;28;20216;-80
2022/01/29 11:37:41;;;;;;;1.90;1.30;;;9.20;99.90;;;;;;4976387;28;20262;-78
2022/01/29 11:40:22;;;;;;;2.67;1.13;;;9.10;99.90;;;;;;4976103;28;20184;-78
2022/01/29 11:43:13;;;;;;;3.60;1.67;;;9.10;99.90;;;;;;4974356;28;20205;-78
2022/01/29 11:46:04;;;;;;;1.33;1.13;;;9.00;99.90;;;;;;4976172;28;20254;-79
2022/01/29 11:48:35;;;;;;;3.50;1.15;;;9.10;99.90;;;;;;4975831;28;20181;-79
2022/01/29 11:51:02;;;;;;;1.60;1.05;;;9.10;99.90;;;;;;4975732;28;20177;-78
2022/01/29 11:53:46;;;;;;;2.00;1.23;;;9.10;99.90;;;;;;4976014;28;20200;-79
2022/01/29 11:56:28;;;;;;;3.35;1.20;;;9.10;99.90;;;;;;4974615;28;20181;-80
2022/01/29 11:59:17;;;;;;;2.47;1.40;;;9.00;99.90;;;;;;4974718;28;20664;-77
2022/01/29 12:01:42;;;;;;;2.10;1.35;;;9.20;99.90;;;;;;4969734;28;20220;-79
2022/01/29 12:04:08;;;;;;;1.20;1.10;;;9.20;99.90;;;;;;4975050;28;20251;-79
2022/01/29 12:06:39;;;;;;;1.70;1.53;;;9.30;99.90;;;;;;4973595;28;20181;-79
2022/01/29 12:09:20;;;;;;;2.45;1.35;;;9.40;99.90;;;;;;4973936;28;20183;-79
2022/01/29 12:12:32;;;;;;;2.70;1.48;;;9.50;99.90;;;;;;4974399;28;20200;-79
2022/01/29 12:15:09;;;;;;;1.95;1.05;;;9.60;99.90;;;;;;4968076;28;20204;-79
2022/01/29 12:17:48;;;;;;;1.02;0.93;;;9.70;99.90;;;;;;4974600;28;20177;-79
2022/01/29 12:20:19;;;;;;;1.83;1.35;;;9.80;99.90;;;;;;4974549;28;20185;-79
2022/01/29 12:22:45;;;;;;;1.50;1.00;;;9.80;99.90;;;;;;4974005;28;20200;-79
2022/01/29 12:25:14;;;;;;;2.55;1.80;;;9.90;99.90;;;;;;4974446;28;20176;-78
2022/01/29 12:27:45;;;;;;;1.30;1.20;;;9.90;99.90;;;;;;4972026;28;20240;-78
2022/01/29 12:30:22;;;;;;;1.45;1.00;;;9.90;99.90;;;;;;5100086;27;20939;-79
2022/01/29 12:32:58;;;;;;;2.15;0.90;;;10.00;99.90;;;;;;5080801;28;20193;-80
2022/01/29 12:35:49;;;;;;;1.20;1.10;;;9.90;99.90;;;;;;5074263;28;20183;-80
2022/01/29 12:38:16;;;;;;;2.60;1.60;;;9.80;99.90;;;;;;5068689;28;20171;-80
2022/01/29 12:41:33;;;;;;;3.85;1.35;;;9.70;99.90;;;;;;5078231;28;20679;-80
2022/01/29 12:44:02;;;;;;;1.40;1.30;;;9.70;99.90;;;;;;5080277;28;20172;-79
2022/01/29 12:46:30;;;;;;;1.70;1.20;;;9.60;99.90;;;;;;5078936;28;20644;-81
2022/01/29 12:49:10;;;;;;;3.33;1.20;;;9.70;99.90;;;;;;5079836;28;20252;-81
2022/01/29 12:51:48;;;;;;;1.15;1.05;;;9.70;99.90;;;;;;5070651;28;20269;-78
2022/01/29 12:54:14;;;;;;;1.45;0.90;;;9.60;99.90;;;;;;5079877;28;20169;-78
2022/01/29 12:56:40;;;;;;;2.90;0.90;;;9.60;99.90;;;;;;5077786;28;20183;-80
2022/01/29 12:59:08;;;;;;;1.90;1.23;;;9.70;99.90;;;;;;5079521;28;20593;-78
2022/01/29 13:01:35;;;;;;;1.13;0.90;;;9.90;99.90;;;;;;5077937;28;20930;-78
2022/01/29 13:04:06;;;;;;;1.00;0.90;;;10.00;99.90;;;;;;5077875;28;20315;-78
2022/01/29 13:06:33;;;;;;;1.35;0.88;;;10.10;99.90;;;;;;5089845;28;20173;-79
2022/01/29 13:09:15;;;;;;;1.00;0.88;;;10.20;99.90;;;;;;5089814;28;20303;-78
2022/01/29 13:11:40;;;;;;;1.10;1.00;;;10.30;99.90;;;;;;5088318;28;20558;-81